createdAt,value
2023-03-06T00:04:03.246Z,2.8561618154264212
2023-03-06T00:15:01.115Z,2.7407425794314384
2023-03-06T00:21:20.597Z,2.7850732911789295
2023-03-06T00:27:39.181Z,2.7904270746237456
2023-03-06T00:33:58.031Z,2.6111824571488294
2023-03-06T00:40:17.041Z,2.7205698683110366
2023-03-06T00:46:37.629Z,2.6790721676421407
2023-03-06T00:52:56.890Z,2.4688055236204014
2023-03-06T01:05:26.428Z,2.522146739130435
2023-03-06T01:11:45.727Z,2.393239835911371
2023-03-06T01:19:37.304Z,2.448889527591973
2023-03-06T01:25:56.504Z,2.456162468645485
2023-03-06T01:32:15.703Z,2.4791812552257526
2023-03-06T01:38:34.557Z,2.4150566994147153
2023-03-06T01:48:23.078Z,2.379710362667224
2023-03-06T01:54:41.763Z,2.425636888586957
2023-03-06T02:07:06.520Z,2.38960793791806
2023-03-06T02:13:26.888Z,2.4077001463210705
2023-03-06T02:19:46.326Z,2.3266539506688964
2023-03-06T02:26:06.400Z,2.3711740959448164
2023-03-06T02:32:24.823Z,2.4137874947742475
2023-03-06T02:39:08.182Z,2.2952968227424746
2023-03-06T02:45:27.058Z,2.0273339517140467
2023-03-06T02:51:45.808Z,2.2198180131688963
2023-03-06T02:58:04.400Z,2.299823630852843
2023-03-06T03:07:49.193Z,2.1973949623745823
2023-03-06T03:18:27.052Z,2.116956260451505
2023-03-06T03:24:45.995Z,2.0206280048076923
2023-03-06T03:31:05.348Z,2.149179556856187
2023-03-06T03:37:24.085Z,2.0066458507525087
2023-03-06T03:43:42.809Z,2.1494166753762545
2023-03-06T03:50:01.920Z,2.111662573160535
2023-03-06T03:56:20.368Z,2.1643793112458196
2023-03-06T04:04:35.740Z,2.121781589673913
2023-03-06T04:10:55.001Z,2.1090268342391307
2023-03-06T04:17:43.989Z,2.068467156145485
2023-03-06T04:24:44.868Z,2.09675154159699
2023-03-06T04:31:03.538Z,2.1102862405936453
2023-03-06T04:37:22.129Z,2.0197448526337793
2023-03-06T04:43:40.827Z,1.944260164088629
2023-03-06T04:49:59.951Z,1.960684704222408
2023-03-06T05:04:57.514Z,1.9819966293896318
2023-03-06T05:11:18.267Z,1.912974237040134
2023-03-06T05:17:38.424Z,1.8942248902591972
2023-03-06T05:23:56.371Z,1.757171692098662
2023-03-06T05:30:17.250Z,1.7527206573996656
2023-03-06T05:36:37.335Z,1.7599237040133777
2023-03-06T05:45:40.142Z,1.7953164193143814
2023-03-06T05:52:01.955Z,1.6340562290969902
2023-03-06T05:58:24.216Z,1.7190909803511703
2023-03-06T06:04:45.921Z,1.701017715301003
2023-03-06T06:15:34.350Z,1.7282615227842808
2023-03-06T06:21:52.590Z,1.7480534071906355
2023-03-06T06:28:17.884Z,1.7734120244565217
2023-03-06T06:34:38.492Z,1.7517310305183942
2023-03-06T06:45:20.236Z,1.8029473244147156
2023-03-06T06:51:38.557Z,1.8699271007525085
2023-03-06T06:57:58.714Z,2.0870936977424748
2023-03-06T07:04:18.713Z,2.215610629180602
2023-03-06T07:11:18.824Z,2.074156694188963
2023-03-06T07:27:03.038Z,2.079670516304348
2023-03-06T07:38:53.948Z,2.03143420777592
2023-03-06T07:45:15.804Z,2.3809567046404685
2023-03-06T07:51:36.934Z,2.423212139423077
2023-03-06T07:57:58.512Z,2.1394087061036786
2023-03-06T08:13:34.329Z,2.5731376724498327
2023-03-06T08:26:50.811Z,2.5755532765468225
2023-03-06T08:42:46.663Z,2.3582103104096985
2023-03-06T08:49:07.961Z,2.74949506166388
2023-03-06T08:55:28.833Z,3.5813773777173905
2023-03-06T09:01:49.077Z,3.460388795986622
2023-03-06T09:13:06.509Z,3.4626358695652173
2023-03-06T09:19:27.485Z,3.0391434991638797
2023-03-06T09:25:48.040Z,3.185441053511706
2023-03-06T09:32:11.750Z,3.5427126881270907
2023-03-06T09:40:01.769Z,3.8444587426839463
2023-03-06T09:49:33.383Z,4.0386875522575245
2023-03-06T09:55:54.224Z,4.157636784071907
2023-03-06T10:02:14.923Z,4.06424866743311
2023-03-06T10:13:21.175Z,4.523224550585284
2023-03-06T10:25:21.992Z,4.606542642140468
2023-03-06T10:31:42.711Z,4.494689329013378
2023-03-06T10:38:03.307Z,4.638347225125418
2023-03-06T10:44:24.178Z,4.919708272366221
2023-03-06T10:50:44.390Z,5.03368585388796
2023-03-06T10:57:05.142Z,4.831899299749163
2023-03-06T11:03:26.273Z,4.872844377090301
2023-03-06T11:15:49.398Z,5.12914206208194
2023-03-06T11:25:33.987Z,5.376862980769231
2023-03-06T11:31:54.808Z,5.647751619983278
2023-03-06T11:38:15.797Z,5.792608173076923
2023-03-06T11:44:36.752Z,5.867595761914716
2023-03-06T11:51:25.699Z,6.186857885660535
2023-03-06T11:57:47.252Z,6.311417616011706
2023-03-06T12:04:09.191Z,6.325121498745819
2023-03-06T12:10:30.750Z,6.330236204013378
2023-03-06T12:16:52.490Z,6.731877743520067
2023-03-06T12:24:40.441Z,7.054268133361204
2023-03-06T12:31:02.300Z,7.281088001672241
2023-03-06T12:37:23.739Z,7.2944208559782595
2023-03-06T12:43:45.450Z,7.236566549958195
2023-03-06T12:50:09.213Z,6.98565922867893
2023-03-06T12:57:56.612Z,6.799044340510033
2023-03-06T13:04:18.216Z,6.955027827132107
2023-03-06T13:10:40.573Z,6.907332383988294
2023-03-06T13:17:05.197Z,6.93287324937291
2023-03-06T13:23:28.293Z,6.938417119565217
2023-03-06T13:29:50.323Z,6.4344951923076925
2023-03-06T13:36:12.504Z,6.462618885869566
2023-03-06T13:42:33.968Z,6.625319424122074
2023-03-06T13:48:55.568Z,6.423197115384617
2023-03-06T13:55:17.228Z,6.579887385033445
2023-03-06T14:01:39.739Z,6.7200355351170575
2023-03-06T14:08:01.390Z,6.733646007525084
2023-03-06T14:14:22.879Z,6.794471153846154
2023-03-06T14:25:34.800Z,6.4080672554347835
2023-03-06T14:31:56.088Z,6.31930458298495
2023-03-06T14:38:17.663Z,6.284257420568562
2023-03-06T14:45:36.867Z,6.171330215301003
2023-03-06T14:51:58.026Z,6.116300428511705
2023-03-06T14:58:19.376Z,6.183785143185619
2023-03-06T15:04:40.652Z,6.124418635033445
2023-03-06T15:11:02.213Z,6.113544497282608
2023-03-06T15:17:23.483Z,5.910524012332775
2023-03-06T15:26:32.520Z,5.786013926630435
2023-03-06T15:32:53.957Z,5.674881114130434
2023-03-06T15:39:16.994Z,5.637524169105351
2023-03-06T15:45:38.622Z,5.499752429974916
2023-03-06T15:52:00.483Z,5.5898293791806015
2023-03-06T15:58:21.954Z,5.453864443979933
2023-03-06T16:04:43.273Z,5.512872334866222
2023-03-06T16:13:22.735Z,5.354952706939799
2023-03-06T16:19:44.282Z,5.280122543896322
2023-03-06T16:26:06.129Z,5.2094618781354525
2023-03-06T16:43:08.004Z,5.024625705476589
2023-03-06T16:49:29.256Z,4.917081678511705
2023-03-06T16:55:50.271Z,4.825150240384615
2023-03-06T17:02:12.063Z,4.730035012541807
2023-03-06T17:12:49.548Z,4.5449969951923075
2023-03-06T17:21:39.428Z,4.388613738503345
2023-03-06T17:33:07.579Z,4.249814485785953
2023-03-06T17:39:27.168Z,4.130093802257526
2023-03-06T17:50:26.044Z,4.04202550167224
2023-03-06T17:56:44.852Z,4.005059181647157
2023-03-06T18:03:05.949Z,3.881773881688963
2023-03-06T18:09:24.772Z,3.954899796195652
2023-03-06T18:15:43.489Z,3.848896713001673
2023-03-06T18:26:58.653Z,3.7700662364130437
2023-03-06T18:36:21.103Z,3.8230102947324416
2023-03-06T18:42:40.005Z,3.9029917433110364
2023-03-06T18:48:59.511Z,3.7191745923913038
2023-03-06T19:03:38.815Z,3.618690557065217
2023-03-06T19:17:25.228Z,3.5475811298076922
2023-03-06T19:23:43.827Z,3.5929863869147156
2023-03-06T19:30:03.214Z,3.594343776128763
2023-03-06T19:36:22.519Z,3.563731971153846
2023-03-06T19:48:38.406Z,3.6394570443143808
2023-03-06T19:54:57.332Z,3.679155779682274
2023-03-06T20:06:23.533Z,3.6243461277173914
2023-03-06T20:12:41.958Z,3.609437055811037
2023-03-06T20:19:00.727Z,3.6893283601588625
2023-03-06T20:25:19.397Z,3.7155747021321073
2023-03-06T20:31:37.397Z,3.8100961538461537
2023-03-06T20:37:56.314Z,3.8350791701505025
2023-03-06T20:44:14.800Z,3.8216502926421407
2023-03-06T20:50:33.244Z,3.814295699205686
2023-03-06T20:56:51.641Z,3.788308031981605
2023-03-06T21:03:11.592Z,3.7450995505852847
2023-03-06T21:09:30.088Z,3.6864424383361203
2023-03-06T21:33:34.933Z,3.4108499686454845
2023-03-06T21:39:53.977Z,3.3166753762541807
2023-03-06T21:52:49.118Z,3.2816073108277592
2023-03-06T22:06:13.119Z,3.194731135033445
2023-03-06T22:12:31.245Z,3.1903526076505018
2023-03-06T22:18:50.121Z,3.103893838837793
2023-03-06T22:25:08.373Z,3.118491325250836
2023-03-06T22:39:30.699Z,3.2652938179347823
2023-03-06T22:47:14.864Z,3.2335604358277594
2023-03-06T23:04:21.801Z,3.348805262332776
2023-03-06T23:10:40.807Z,3.3608983068561877
2023-03-06T23:22:23.409Z,3.4080737876254177
2023-03-06T23:28:41.942Z,3.356718358068562
2023-03-06T23:35:01.389Z,3.374165839255853
2023-03-06T23:45:27.080Z,3.435493311036789
2023-03-06T23:51:45.340Z,3.3511156981605357
